createdAt,value
2023-03-30T00:01:37.484Z,70.90
2023-03-30T00:06:43.023Z,70.80
2023-03-30T00:11:47.911Z,70.80
2023-03-30T00:16:53.428Z,71.00
2023-03-30T00:21:57.406Z,70.90
2023-03-30T00:27:00.984Z,70.80
2023-03-30T00:32:06.205Z,70.80
2023-03-30T00:37:09.695Z,70.80
2023-03-30T00:42:17.353Z,71.00
2023-03-30T00:47:23.778Z,71.60
2023-03-30T00:52:28.075Z,70.70
2023-03-30T00:57:33.831Z,70.70
2023-03-30T01:02:46.041Z,70.80
2023-03-30T01:07:49.898Z,71.00
2023-03-30T01:12:53.936Z,70.80
2023-03-30T01:18:25.887Z,70.80
2023-03-30T01:24:27.744Z,70.80
2023-03-30T01:29:59.511Z,70.80
2023-03-30T01:35:57.818Z,70.90
2023-03-30T01:41:14.076Z,70.70
2023-03-30T01:46:26.664Z,70.60
2023-03-30T01:51:36.948Z,70.90
2023-03-30T01:56:49.197Z,70.80
2023-03-30T02:02:00.677Z,70.80
2023-03-30T02:07:11.138Z,70.60
2023-03-30T02:12:16.173Z,70.70
2023-03-30T02:17:24.713Z,70.80
2023-03-30T02:22:30.636Z,70.80
2023-03-30T02:27:38.553Z,70.70
2023-03-30T02:32:46.847Z,70.60
2023-03-30T02:38:19.334Z,70.80
2023-03-30T02:43:40.505Z,70.90
2023-03-30T02:49:00.783Z,70.70
2023-03-30T02:54:20.425Z,70.60
2023-03-30T02:59:53.126Z,70.60
2023-03-30T03:04:57.456Z,70.80
2023-03-30T03:10:21.147Z,70.90
2023-03-30T03:15:26.360Z,70.60
2023-03-30T03:20:44.934Z,70.60
2023-03-30T03:25:49.410Z,70.60
2023-03-30T03:30:58.242Z,70.80
2023-03-30T03:36:02.227Z,70.60
2023-03-30T03:41:13.051Z,70.50
2023-03-30T03:46:19.997Z,70.70
2023-03-30T03:51:23.589Z,70.70
2023-03-30T03:56:27.706Z,70.70
2023-03-30T04:01:34.033Z,70.40
2023-03-30T04:06:37.586Z,70.50
2023-03-30T04:11:41.537Z,70.60
2023-03-30T04:17:23.979Z,70.60
2023-03-30T04:22:50.093Z,70.40
2023-03-30T04:28:12.694Z,70.50
2023-03-30T04:38:59.807Z,70.60
2023-03-30T04:44:22.119Z,70.80
2023-03-30T04:49:44.043Z,70.70
2023-03-30T04:55:18.129Z,70.60
2023-03-30T05:00:47.729Z,70.80
2023-03-30T05:05:51.286Z,70.80
2023-03-30T05:23:40.959Z,70.50
2023-03-30T05:29:17.294Z,70.80
2023-03-30T05:34:39.328Z,71.10
2023-03-30T05:40:12.669Z,70.80
2023-03-30T05:45:24.349Z,70.80
2023-03-30T05:50:44.871Z,70.80
2023-03-30T05:55:58.483Z,71.60
2023-03-30T06:13:26.375Z,70.60
2023-03-30T06:18:29.749Z,70.80
2023-03-30T06:23:42.657Z,70.60
2023-03-30T06:28:54.675Z,70.50
2023-03-30T06:33:58.268Z,70.60
2023-03-30T06:39:06.555Z,70.60
2023-03-30T06:44:14.834Z,70.60
2023-03-30T06:49:18.577Z,70.50
2023-03-30T06:54:22.202Z,70.50
2023-03-30T06:59:35.021Z,70.70
2023-03-30T07:04:58.461Z,70.80
2023-03-30T07:10:13.052Z,70.80
2023-03-30T07:15:17.946Z,70.60
2023-03-30T07:20:21.568Z,70.50
2023-03-30T07:25:46.915Z,70.70
2023-03-30T07:30:55.513Z,70.90
2023-03-30T07:36:01.327Z,70.80
2023-03-30T07:41:09.992Z,70.60
2023-03-30T07:46:15.436Z,70.80
2023-03-30T07:51:23.841Z,70.90
2023-03-30T07:56:43.004Z,71.00
2023-03-30T08:01:50.255Z,70.80
2023-03-30T08:07:11.226Z,70.70
2023-03-30T08:12:14.991Z,70.80
2023-03-30T08:17:21.221Z,71.00
2023-03-30T08:22:24.710Z,70.80
2023-03-30T08:27:28.347Z,70.80
2023-03-30T08:32:33.174Z,70.50
2023-03-30T08:37:36.628Z,70.50
2023-03-30T08:43:27.215Z,70.60
2023-03-30T08:48:37.604Z,70.80
2023-03-30T08:53:42.155Z,70.90
2023-03-30T08:58:54.812Z,70.70
2023-03-30T09:04:18.417Z,70.60
2023-03-30T09:09:29.180Z,70.80
2023-03-30T09:14:40.702Z,70.90
2023-03-30T09:19:56.983Z,70.70
2023-03-30T09:25:01.456Z,70.50
2023-03-30T09:30:19.970Z,70.50
2023-03-30T09:35:34.766Z,70.70
2023-03-30T09:41:06.525Z,70.80
2023-03-30T09:46:10.154Z,70.70
2023-03-30T09:51:24.226Z,70.50
2023-03-30T09:56:36.980Z,70.60
2023-03-30T10:01:40.852Z,70.80
2023-03-30T10:06:50.466Z,70.80
2023-03-30T10:11:56.503Z,70.70
2023-03-30T10:17:01.116Z,70.40
2023-03-30T10:22:18.855Z,70.50
2023-03-30T10:27:29.305Z,70.60
2023-03-30T10:32:33.702Z,70.90
2023-03-30T10:37:42.306Z,70.60
2023-03-30T10:42:47.776Z,70.50
2023-03-30T10:48:20.348Z,70.50
2023-03-30T10:53:43.412Z,70.80
2023-03-30T10:59:20.134Z,70.70
2023-03-30T11:04:30.180Z,70.60
2023-03-30T11:09:41.391Z,70.40
2023-03-30T11:14:53.031Z,70.50
2023-03-30T11:20:00.201Z,70.70
2023-03-30T11:25:22.095Z,70.80
2023-03-30T11:30:31.394Z,70.60
2023-03-30T11:35:41.648Z,70.50
2023-03-30T11:40:50.087Z,70.50
2023-03-30T11:46:04.005Z,70.70
2023-03-30T11:51:27.261Z,70.60
2023-03-30T11:56:44.148Z,70.40
2023-03-30T12:02:19.138Z,70.30
2023-03-30T12:07:38.237Z,70.50
2023-03-30T12:12:44.184Z,70.60
2023-03-30T12:17:54.007Z,70.30
2023-03-30T12:23:10.935Z,70.30
2023-03-30T12:28:19.408Z,70.30
2023-03-30T12:33:30.115Z,70.40
2023-03-30T12:38:43.537Z,70.70
2023-03-30T12:44:26.047Z,70.90
2023-03-30T12:49:51.935Z,70.80
2023-03-30T12:55:21.901Z,70.30
2023-03-30T13:01:38.391Z,70.00
2023-03-30T13:06:52.866Z,69.70
2023-03-30T13:12:36.243Z,69.80
2023-03-30T13:18:01.476Z,69.90
2023-03-30T13:23:32.596Z,70.00
2023-03-30T13:28:58.505Z,70.20
2023-03-30T13:34:17.788Z,70.20
2023-03-30T13:39:30.277Z,69.80
2023-03-30T13:44:57.254Z,70.10
2023-03-30T13:50:08.258Z,70.00
2023-03-30T13:55:23.147Z,69.80
2023-03-30T14:00:44.240Z,70.10
2023-03-30T14:05:50.076Z,69.80
2023-03-30T14:10:54.206Z,69.60
2023-03-30T14:15:57.682Z,69.40
2023-03-30T14:21:06.439Z,69.80
2023-03-30T14:26:17.693Z,70.20
2023-03-30T14:31:23.001Z,70.00
2023-03-30T14:36:27.957Z,70.10
2023-03-30T14:41:31.738Z,70.10
2023-03-30T14:46:46.729Z,70.00
2023-03-30T14:51:53.813Z,69.80
2023-03-30T14:57:00.877Z,70.10
2023-03-30T15:02:05.802Z,70.90
2023-03-30T15:07:13.234Z,70.60
2023-03-30T15:12:25.229Z,70.00
2023-03-30T15:17:30.357Z,69.90
2023-03-30T15:22:39.034Z,69.90
2023-03-30T15:27:48.086Z,71.50
2023-03-30T15:32:57.967Z,70.50
2023-03-30T15:38:13.844Z,70.50
2023-03-30T15:43:23.165Z,70.50
2023-03-30T15:48:35.963Z,70.10
2023-03-30T15:53:49.305Z,70.30
2023-03-30T15:58:53.048Z,70.10
2023-03-30T16:04:01.843Z,70.10
2023-03-30T16:09:07.131Z,70.00
2023-03-30T16:14:18.072Z,69.10
2023-03-30T16:19:21.478Z,68.80
2023-03-30T16:24:26.310Z,68.70
2023-03-30T16:29:29.808Z,69.50
2023-03-30T16:34:33.300Z,69.70
2023-03-30T16:39:38.045Z,69.80
2023-03-30T16:44:41.456Z,70.10
2023-03-30T16:49:45.135Z,69.50
2023-03-30T16:54:50.113Z,69.50
2023-03-30T16:59:53.565Z,70.00
2023-03-30T17:04:56.937Z,71.50
2023-03-30T17:10:01.816Z,71.60
2023-03-30T17:15:06.686Z,71.60
2023-03-30T17:20:27.802Z,70.50
2023-03-30T17:25:32.687Z,69.80
2023-03-30T17:30:40.263Z,69.40
2023-03-30T17:35:48.415Z,70.40
2023-03-30T17:40:53.677Z,70.90
2023-03-30T17:45:57.093Z,70.60
2023-03-30T17:51:00.568Z,70.80
2023-03-30T17:56:06.256Z,70.70
2023-03-30T18:01:12.427Z,69.90
2023-03-30T18:06:16.267Z,69.80
2023-03-30T18:11:21.026Z,69.90
2023-03-30T18:16:24.519Z,69.80
2023-03-30T18:21:27.969Z,70.00
2023-03-30T18:26:33.791Z,69.90
2023-03-30T18:31:37.272Z,70.10
2023-03-30T18:36:40.902Z,70.20
2023-03-30T18:41:45.707Z,69.60
2023-03-30T18:46:52.340Z,69.50
2023-03-30T18:51:55.810Z,69.00
2023-03-30T18:57:01.369Z,69.20
2023-03-30T19:02:04.860Z,69.40
2023-03-30T19:07:08.623Z,69.60
2023-03-30T19:12:14.674Z,69.60
2023-03-30T19:17:18.079Z,69.70
2023-03-30T19:22:21.471Z,69.50
2023-03-30T19:27:26.395Z,69.20
2023-03-30T19:32:29.854Z,69.20
2023-03-30T19:37:33.465Z,69.30
2023-03-30T19:42:38.352Z,69.50
2023-03-30T19:47:43.665Z,69.60
2023-03-30T19:52:50.455Z,69.90
2023-03-30T19:57:55.221Z,70.00
2023-03-30T20:02:58.822Z,69.90
2023-03-30T20:08:10.715Z,69.70
2023-03-30T20:13:23.890Z,69.40
2023-03-30T20:18:27.348Z,69.30
2023-03-30T20:23:30.761Z,69.10
2023-03-30T20:28:35.586Z,69.20
2023-03-30T20:33:39.704Z,69.30
2023-03-30T20:38:45.824Z,69.50
2023-03-30T20:43:57.287Z,69.60
2023-03-30T20:49:02.132Z,69.90
2023-03-30T20:54:07.696Z,69.80
2023-03-30T20:59:12.695Z,69.80
2023-03-30T21:04:16.848Z,69.60
2023-03-30T21:09:20.577Z,69.40
2023-03-30T21:14:25.459Z,69.10
2023-03-30T21:19:28.944Z,69.40
2023-03-30T21:24:32.965Z,69.30
2023-03-30T21:29:37.748Z,69.40
2023-03-30T21:34:41.437Z,69.60
2023-03-30T21:39:45.142Z,69.60
2023-03-30T21:44:49.942Z,69.40
2023-03-30T21:49:53.412Z,69.30
2023-03-30T21:54:56.862Z,69.90
2023-03-30T22:00:01.948Z,69.10
2023-03-30T22:05:06.228Z,69.20
2023-03-30T22:10:11.128Z,69.40
2023-03-30T22:15:16.043Z,69.60
2023-03-30T22:20:21.410Z,69.60
2023-03-30T22:25:25.779Z,69.40
2023-03-30T22:30:30.845Z,69.10
2023-03-30T22:35:39.552Z,69.10
2023-03-30T22:40:43.276Z,69.10
2023-03-30T22:45:48.079Z,69.30
2023-03-30T22:50:51.805Z,69.50
2023-03-30T22:55:55.268Z,69.60
2023-03-30T23:01:10.195Z,70.00
2023-03-30T23:06:13.866Z,70.00
2023-03-30T23:11:17.332Z,69.70
2023-03-30T23:16:22.284Z,69.50
2023-03-30T23:21:25.878Z,69.20
2023-03-30T23:26:29.855Z,69.10
2023-03-30T23:31:35.631Z,69.20
2023-03-30T23:36:39.648Z,69.40
2023-03-30T23:41:43.823Z,70.30
2023-03-30T23:46:48.851Z,69.70
2023-03-30T23:51:53.330Z,70.40
2023-03-30T23:56:58.133Z,69.40
